sensor_id;sensor_type;location;lat;lon;timestamp;P1;durP1;ratioP1;P2;durP2;ratioP2
74215;SDS011;62577;53.378;-2.914;2022-11-15T00:01:40;1.23;;;0.45;;
74215;SDS011;62577;53.378;-2.914;2022-11-15T00:04:06;2.15;;;0.50;;
74215;SDS011;62577;53.378;-2.914;2022-11-15T00:06:33;3.55;;;0.68;;
74215;SDS011;62577;53.378;-2.914;2022-11-15T00:08:59;3.83;;;1.10;;
74215;SDS011;62577;53.378;-2.914;2022-11-15T00:11:26;4.30;;;0.70;;
74215;SDS011;62577;53.378;-2.914;2022-11-15T00:13:55;4.25;;;0.80;;
74215;SDS011;62577;53.378;-2.914;2022-11-15T00:16:22;4.10;;;0.90;;
74215;SDS011;62577;53.378;-2.914;2022-11-15T00:18:48;4.00;;;0.70;;
74215;SDS011;62577;53.378;-2.914;2022-11-15T00:21:14;7.20;;;1.00;;
74215;SDS011;62577;53.378;-2.914;2022-11-15T00:23:41;3.95;;;0.65;;
74215;SDS011;62577;53.378;-2.914;2022-11-15T00:26:08;5.97;;;1.58;;
74215;SDS011;62577;53.378;-2.914;2022-11-15T00:28:36;2.60;;;0.98;;
74215;SDS011;62577;53.378;-2.914;2022-11-15T00:31:03;4.20;;;1.05;;
74215;SDS011;62577;53.378;-2.914;2022-11-15T00:33:29;3.08;;;1.10;;
74215;SDS011;62577;53.378;-2.914;2022-11-15T00:36:08;3.33;;;0.77;;
74215;SDS011;62577;53.378;-2.914;2022-11-15T00:38:36;5.78;;;0.93;;
74215;SDS011;62577;53.378;-2.914;2022-11-15T00:41:04;6.35;;;1.63;;
74215;SDS011;62577;53.378;-2.914;2022-11-15T00:45:57;2.75;;;0.82;;
74215;SDS011;62577;53.378;-2.914;2022-11-15T00:48:23;3.28;;;0.90;;
74215;SDS011;62577;53.378;-2.914;2022-11-15T00:50:49;7.10;;;1.50;;
74215;SDS011;62577;53.378;-2.914;2022-11-15T00:53:15;4.47;;;1.15;;
74215;SDS011;62577;53.378;-2.914;2022-11-15T00:55:41;4.38;;;0.85;;
74215;SDS011;62577;53.378;-2.914;2022-11-15T00:58:08;6.05;;;1.38;;
74215;SDS011;62577;53.378;-2.914;2022-11-15T01:00:34;3.53;;;0.85;;
74215;SDS011;62577;53.378;-2.914;2022-11-15T01:03:00;5.35;;;1.30;;
74215;SDS011;62577;53.378;-2.914;2022-11-15T01:05:26;5.13;;;1.15;;
74215;SDS011;62577;53.378;-2.914;2022-11-15T01:07:53;5.50;;;1.10;;
74215;SDS011;62577;53.378;-2.914;2022-11-15T01:10:19;3.40;;;1.05;;
74215;SDS011;62577;53.378;-2.914;2022-11-15T01:12:45;2.10;;;0.70;;
74215;SDS011;62577;53.378;-2.914;2022-11-15T01:15:11;4.93;;;1.08;;
74215;SDS011;62577;53.378;-2.914;2022-11-15T01:17:37;1.80;;;0.60;;
74215;SDS011;62577;53.378;-2.914;2022-11-15T01:20:04;3.85;;;1.08;;
74215;SDS011;62577;53.378;-2.914;2022-11-15T01:22:30;4.75;;;1.33;;
74215;SDS011;62577;53.378;-2.914;2022-11-15T01:24:56;3.97;;;0.90;;
74215;SDS011;62577;53.378;-2.914;2022-11-15T01:27:22;3.63;;;1.02;;
74215;SDS011;62577;53.378;-2.914;2022-11-15T01:29:48;6.10;;;1.25;;
74215;SDS011;62577;53.378;-2.914;2022-11-15T01:32:14;3.53;;;1.10;;
74215;SDS011;62577;53.378;-2.914;2022-11-15T01:34:40;10.77;;;1.05;;
74215;SDS011;62577;53.378;-2.914;2022-11-15T01:37:06;2.78;;;1.00;;
74215;SDS011;62577;53.378;-2.914;2022-11-15T01:39:32;1.80;;;0.85;;
74215;SDS011;62577;53.378;-2.914;2022-11-15T01:41:58;4.20;;;0.80;;
74215;SDS011;62577;53.378;-2.914;2022-11-15T01:46:57;3.58;;;1.20;;
74215;SDS011;62577;53.378;-2.914;2022-11-15T01:49:25;2.85;;;1.10;;
74215;SDS011;62577;53.378;-2.914;2022-11-15T01:51:53;5.55;;;1.15;;
74215;SDS011;62577;53.378;-2.914;2022-11-15T01:54:20;3.17;;;1.10;;
74215;SDS011;62577;53.378;-2.914;2022-11-15T01:56:51;3.10;;;0.90;;
74215;SDS011;62577;53.378;-2.914;2022-11-15T01:59:17;6.07;;;1.45;;
74215;SDS011;62577;53.378;-2.914;2022-11-15T02:01:44;4.65;;;1.15;;
74215;SDS011;62577;53.378;-2.914;2022-11-15T02:04:11;4.93;;;0.85;;
74215;SDS011;62577;53.378;-2.914;2022-11-15T02:06:38;3.05;;;0.82;;
74215;SDS011;62577;53.378;-2.914;2022-11-15T02:09:05;6.53;;;1.67;;
74215;SDS011;62577;53.378;-2.914;2022-11-15T02:11:31;5.63;;;1.20;;
74215;SDS011;62577;53.378;-2.914;2022-11-15T02:13:57;6.57;;;1.25;;
74215;SDS011;62577;53.378;-2.914;2022-11-15T02:21:32;7.63;;;1.35;;
74215;SDS011;62577;53.378;-2.914;2022-11-15T02:24:07;3.83;;;1.20;;
74215;SDS011;62577;53.378;-2.914;2022-11-15T02:32:13;3.65;;;1.02;;
74215;SDS011;62577;53.378;-2.914;2022-11-15T02:37:13;4.75;;;1.02;;
74215;SDS011;62577;53.378;-2.914;2022-11-15T02:42:13;5.50;;;0.85;;
74215;SDS011;62577;53.378;-2.914;2022-11-15T02:45:04;6.88;;;1.20;;
74215;SDS011;62577;53.378;-2.914;2022-11-15T02:47:32;6.85;;;0.82;;
74215;SDS011;62577;53.378;-2.914;2022-11-15T02:50:07;7.82;;;1.02;;
74215;SDS011;62577;53.378;-2.914;2022-11-15T02:52:33;4.57;;;0.73;;
74215;SDS011;62577;53.378;-2.914;2022-11-15T02:55:00;4.88;;;0.98;;
74215;SDS011;62577;53.378;-2.914;2022-11-15T03:07:52;5.38;;;1.00;;
74215;SDS011;62577;53.378;-2.914;2022-11-15T03:10:26;5.38;;;0.65;;
74215;SDS011;62577;53.378;-2.914;2022-11-15T03:12:59;8.75;;;1.08;;
74215;SDS011;62577;53.378;-2.914;2022-11-15T03:15:38;5.90;;;0.77;;
74215;SDS011;62577;53.378;-2.914;2022-11-15T03:18:11;5.03;;;0.75;;
74215;SDS011;62577;53.378;-2.914;2022-11-15T03:20:38;3.15;;;0.95;;
74215;SDS011;62577;53.378;-2.914;2022-11-15T03:23:06;3.47;;;0.63;;
74215;SDS011;62577;53.378;-2.914;2022-11-15T03:25:33;4.20;;;1.10;;
74215;SDS011;62577;53.378;-2.914;2022-11-15T03:28:01;5.82;;;1.08;;
74215;SDS011;62577;53.378;-2.914;2022-11-15T03:30:30;2.95;;;0.63;;
74215;SDS011;62577;53.378;-2.914;2022-11-15T03:32:56;4.50;;;0.50;;
74215;SDS011;62577;53.378;-2.914;2022-11-15T03:35:24;6.93;;;1.48;;
74215;SDS011;62577;53.378;-2.914;2022-11-15T03:38:08;3.83;;;0.63;;
74215;SDS011;62577;53.378;-2.914;2022-11-15T03:40:38;6.00;;;1.08;;
74215;SDS011;62577;53.378;-2.914;2022-11-15T03:46:06;2.45;;;0.60;;
74215;SDS011;62577;53.378;-2.914;2022-11-15T03:48:34;2.30;;;0.70;;
74215;SDS011;62577;53.378;-2.914;2022-11-15T03:51:03;3.25;;;0.68;;
74215;SDS011;62577;53.378;-2.914;2022-11-15T03:53:29;5.68;;;0.70;;
74215;SDS011;62577;53.378;-2.914;2022-11-15T03:55:56;4.35;;;0.93;;
74215;SDS011;62577;53.378;-2.914;2022-11-15T03:58:22;5.65;;;0.90;;
74215;SDS011;62577;53.378;-2.914;2022-11-15T04:00:48;6.55;;;1.27;;
74215;SDS011;62577;53.378;-2.914;2022-11-15T04:03:15;5.40;;;0.98;;
74215;SDS011;62577;53.378;-2.914;2022-11-15T04:05:41;5.97;;;0.90;;
74215;SDS011;62577;53.378;-2.914;2022-11-15T04:08:07;5.78;;;0.95;;
74215;SDS011;62577;53.378;-2.914;2022-11-15T04:10:33;6.43;;;1.40;;
74215;SDS011;62577;53.378;-2.914;2022-11-15T04:12:59;7.15;;;1.35;;
74215;SDS011;62577;53.378;-2.914;2022-11-15T04:15:25;5.85;;;1.13;;
74215;SDS011;62577;53.378;-2.914;2022-11-15T04:17:55;9.25;;;1.25;;
74215;SDS011;62577;53.378;-2.914;2022-11-15T04:20:25;4.68;;;1.23;;
74215;SDS011;62577;53.378;-2.914;2022-11-15T04:23:12;7.47;;;1.10;;
74215;SDS011;62577;53.378;-2.914;2022-11-15T04:25:58;6.32;;;0.90;;
74215;SDS011;62577;53.378;-2.914;2022-11-15T04:28:24;5.93;;;1.02;;
74215;SDS011;62577;53.378;-2.914;2022-11-15T04:30:50;6.72;;;0.98;;
74215;SDS011;62577;53.378;-2.914;2022-11-15T04:33:16;8.25;;;0.80;;
74215;SDS011;62577;53.378;-2.914;2022-11-15T04:35:42;3.42;;;0.95;;
74215;SDS011;62577;53.378;-2.914;2022-11-15T04:38:09;6.18;;;0.85;;
74215;SDS011;62577;53.378;-2.914;2022-11-15T04:40:35;8.27;;;1.13;;
74215;SDS011;62577;53.378;-2.914;2022-11-15T04:43:01;4.15;;;1.02;;
74215;SDS011;62577;53.378;-2.914;2022-11-15T04:45:27;6.22;;;0.85;;
74215;SDS011;62577;53.378;-2.914;2022-11-15T04:47:53;4.85;;;1.00;;
74215;SDS011;62577;53.378;-2.914;2022-11-15T04:50:19;8.32;;;0.77;;
74215;SDS011;62577;53.378;-2.914;2022-11-15T04:52:53;5.55;;;1.00;;
74215;SDS011;62577;53.378;-2.914;2022-11-15T04:55:19;4.68;;;0.80;;
74215;SDS011;62577;53.378;-2.914;2022-11-15T04:57:45;4.72;;;0.52;;
74215;SDS011;62577;53.378;-2.914;2022-11-15T05:00:12;5.55;;;1.00;;
74215;SDS011;62577;53.378;-2.914;2022-11-15T05:02:39;3.72;;;0.77;;
74215;SDS011;62577;53.378;-2.914;2022-11-15T05:05:24;2.90;;;0.65;;
74215;SDS011;62577;53.378;-2.914;2022-11-15T05:07:50;5.88;;;0.90;;
74215;SDS011;62577;53.378;-2.914;2022-11-15T05:10:16;11.43;;;0.95;;
74215;SDS011;62577;53.378;-2.914;2022-11-15T05:12:42;6.95;;;1.15;;
74215;SDS011;62577;53.378;-2.914;2022-11-15T05:15:09;4.07;;;1.00;;
74215;SDS011;62577;53.378;-2.914;2022-11-15T05:17:35;7.35;;;1.23;;
74215;SDS011;62577;53.378;-2.914;2022-11-15T05:20:01;2.33;;;0.60;;
74215;SDS011;62577;53.378;-2.914;2022-11-15T05:22:27;5.07;;;0.95;;
74215;SDS011;62577;53.378;-2.914;2022-11-15T05:24:53;11.93;;;1.05;;
74215;SDS011;62577;53.378;-2.914;2022-11-15T05:27:19;5.60;;;0.85;;
74215;SDS011;62577;53.378;-2.914;2022-11-15T05:29:45;6.03;;;1.80;;
74215;SDS011;62577;53.378;-2.914;2022-11-15T05:32:11;3.35;;;1.20;;
74215;SDS011;62577;53.378;-2.914;2022-11-15T05:34:38;5.47;;;1.50;;
74215;SDS011;62577;53.378;-2.914;2022-11-15T05:37:04;5.40;;;1.58;;
74215;SDS011;62577;53.378;-2.914;2022-11-15T05:39:30;5.55;;;1.35;;
74215;SDS011;62577;53.378;-2.914;2022-11-15T05:41:58;6.60;;;1.20;;
74215;SDS011;62577;53.378;-2.914;2022-11-15T05:44:26;8.45;;;1.65;;
74215;SDS011;62577;53.378;-2.914;2022-11-15T05:46:52;6.43;;;2.00;;
74215;SDS011;62577;53.378;-2.914;2022-11-15T05:49:19;6.60;;;1.63;;
74215;SDS011;62577;53.378;-2.914;2022-11-15T05:51:47;10.77;;;1.88;;
74215;SDS011;62577;53.378;-2.914;2022-11-15T05:54:14;4.82;;;1.58;;
74215;SDS011;62577;53.378;-2.914;2022-11-15T05:56:40;6.88;;;1.80;;
74215;SDS011;62577;53.378;-2.914;2022-11-15T05:59:07;9.95;;;3.05;;
74215;SDS011;62577;53.378;-2.914;2022-11-15T06:01:33;9.07;;;2.47;;
74215;SDS011;62577;53.378;-2.914;2022-11-15T06:04:00;8.57;;;2.97;;
74215;SDS011;62577;53.378;-2.914;2022-11-15T06:06:27;8.23;;;2.70;;
74215;SDS011;62577;53.378;-2.914;2022-11-15T06:08:53;8.85;;;2.88;;
74215;SDS011;62577;53.378;-2.914;2022-11-15T06:11:19;10.65;;;2.90;;
74215;SDS011;62577;53.378;-2.914;2022-11-15T06:13:45;3.80;;;2.00;;
74215;SDS011;62577;53.378;-2.914;2022-11-15T06:16:11;6.57;;;2.17;;
74215;SDS011;62577;53.378;-2.914;2022-11-15T06:18:37;10.35;;;3.20;;
74215;SDS011;62577;53.378;-2.914;2022-11-15T06:21:03;5.40;;;2.85;;
74215;SDS011;62577;53.378;-2.914;2022-11-15T06:23:33;10.20;;;2.90;;
74215;SDS011;62577;53.378;-2.914;2022-11-15T06:26:00;7.60;;;2.60;;
74215;SDS011;62577;53.378;-2.914;2022-11-15T06:28:32;10.00;;;2.97;;
74215;SDS011;62577;53.378;-2.914;2022-11-15T06:31:04;6.53;;;2.45;;
74215;SDS011;62577;53.378;-2.914;2022-11-15T06:33:30;7.30;;;2.90;;
74215;SDS011;62577;53.378;-2.914;2022-11-15T06:35:59;9.48;;;2.17;;
74215;SDS011;62577;53.378;-2.914;2022-11-15T06:38:25;6.95;;;2.63;;
74215;SDS011;62577;53.378;-2.914;2022-11-15T06:40:52;6.18;;;3.55;;
74215;SDS011;62577;53.378;-2.914;2022-11-15T06:43:18;4.05;;;3.20;;
74215;SDS011;62577;53.378;-2.914;2022-11-15T06:45:44;8.05;;;3.60;;
74215;SDS011;62577;53.378;-2.914;2022-11-15T06:48:10;12.82;;;4.15;;
74215;SDS011;62577;53.378;-2.914;2022-11-15T06:50:36;8.63;;;4.03;;
74215;SDS011;62577;53.378;-2.914;2022-11-15T06:53:04;7.13;;;3.85;;
74215;SDS011;62577;53.378;-2.914;2022-11-15T06:55:30;9.77;;;4.57;;
74215;SDS011;62577;53.378;-2.914;2022-11-15T06:57:56;11.35;;;4.50;;
74215;SDS011;62577;53.378;-2.914;2022-11-15T07:00:22;7.22;;;4.55;;
74215;SDS011;62577;53.378;-2.914;2022-11-15T07:02:48;8.73;;;3.83;;
74215;SDS011;62577;53.378;-2.914;2022-11-15T07:05:15;6.57;;;3.50;;
74215;SDS011;62577;53.378;-2.914;2022-11-15T07:07:41;11.57;;;4.03;;
74215;SDS011;62577;53.378;-2.914;2022-11-15T07:10:07;10.77;;;4.18;;
74215;SDS011;62577;53.378;-2.914;2022-11-15T07:12:33;7.70;;;3.83;;
74215;SDS011;62577;53.378;-2.914;2022-11-15T07:14:59;10.60;;;3.10;;
74215;SDS011;62577;53.378;-2.914;2022-11-15T07:17:25;7.00;;;3.83;;
74215;SDS011;62577;53.378;-2.914;2022-11-15T07:19:51;8.40;;;4.07;;
74215;SDS011;62577;53.378;-2.914;2022-11-15T07:22:17;7.30;;;3.97;;
74215;SDS011;62577;53.378;-2.914;2022-11-15T07:24:43;8.10;;;3.85;;
74215;SDS011;62577;53.378;-2.914;2022-11-15T07:27:09;7.15;;;3.60;;
74215;SDS011;62577;53.378;-2.914;2022-11-15T07:29:36;11.45;;;3.70;;
74215;SDS011;62577;53.378;-2.914;2022-11-15T07:32:02;6.70;;;3.50;;
74215;SDS011;62577;53.378;-2.914;2022-11-15T07:34:28;5.53;;;3.70;;
74215;SDS011;62577;53.378;-2.914;2022-11-15T07:36:54;5.40;;;3.15;;
74215;SDS011;62577;53.378;-2.914;2022-11-15T07:39:20;7.05;;;3.72;;
74215;SDS011;62577;53.378;-2.914;2022-11-15T07:41:46;5.25;;;2.97;;
74215;SDS011;62577;53.378;-2.914;2022-11-15T07:44:13;7.65;;;3.75;;
74215;SDS011;62577;53.378;-2.914;2022-11-15T07:46:39;5.88;;;3.05;;
74215;SDS011;62577;53.378;-2.914;2022-11-15T07:49:05;6.80;;;2.25;;
74215;SDS011;62577;53.378;-2.914;2022-11-15T07:51:31;9.25;;;5.07;;
74215;SDS011;62577;53.378;-2.914;2022-11-15T07:53:57;4.60;;;3.03;;
74215;SDS011;62577;53.378;-2.914;2022-11-15T07:56:23;6.10;;;3.25;;
74215;SDS011;62577;53.378;-2.914;2022-11-15T07:58:49;4.43;;;2.90;;
74215;SDS011;62577;53.378;-2.914;2022-11-15T08:01:15;4.65;;;3.08;;
74215;SDS011;62577;53.378;-2.914;2022-11-15T08:03:41;7.32;;;3.13;;
74215;SDS011;62577;53.378;-2.914;2022-11-15T08:06:07;5.28;;;2.90;;
74215;SDS011;62577;53.378;-2.914;2022-11-15T08:08:33;3.25;;;2.30;;
74215;SDS011;62577;53.378;-2.914;2022-11-15T08:10:59;4.60;;;2.88;;
74215;SDS011;62577;53.378;-2.914;2022-11-15T08:13:26;4.40;;;2.50;;
74215;SDS011;62577;53.378;-2.914;2022-11-15T08:15:56;6.35;;;2.85;;
74215;SDS011;62577;53.378;-2.914;2022-11-15T08:18:22;5.50;;;3.25;;
74215;SDS011;62577;53.378;-2.914;2022-11-15T08:20:48;4.57;;;2.40;;
74215;SDS011;62577;53.378;-2.914;2022-11-15T08:23:14;6.22;;;2.95;;
74215;SDS011;62577;53.378;-2.914;2022-11-15T08:25:41;4.60;;;2.53;;
74215;SDS011;62577;53.378;-2.914;2022-11-15T08:28:07;6.85;;;3.42;;
74215;SDS011;62577;53.378;-2.914;2022-11-15T08:30:34;5.20;;;2.53;;
74215;SDS011;62577;53.378;-2.914;2022-11-15T08:33:01;5.38;;;2.40;;
74215;SDS011;62577;53.378;-2.914;2022-11-15T08:35:27;4.97;;;2.63;;
74215;SDS011;62577;53.378;-2.914;2022-11-15T08:37:53;4.15;;;2.88;;
74215;SDS011;62577;53.378;-2.914;2022-11-15T08:40:20;7.40;;;2.67;;
74215;SDS011;62577;53.378;-2.914;2022-11-15T08:42:46;3.97;;;2.50;;
74215;SDS011;62577;53.378;-2.914;2022-11-15T08:45:12;3.83;;;2.22;;
74215;SDS011;62577;53.378;-2.914;2022-11-15T08:47:38;5.97;;;2.75;;
74215;SDS011;62577;53.378;-2.914;2022-11-15T08:50:05;3.60;;;1.55;;
74215;SDS011;62577;53.378;-2.914;2022-11-15T08:52:31;4.43;;;1.80;;
74215;SDS011;62577;53.378;-2.914;2022-11-15T08:54:57;5.43;;;2.50;;
74215;SDS011;62577;53.378;-2.914;2022-11-15T08:57:24;2.72;;;1.90;;
74215;SDS011;62577;53.378;-2.914;2022-11-15T08:59:50;4.32;;;1.88;;
74215;SDS011;62577;53.378;-2.914;2022-11-15T09:02:16;4.82;;;2.28;;
74215;SDS011;62577;53.378;-2.914;2022-11-15T09:04:42;3.20;;;1.75;;
74215;SDS011;62577;53.378;-2.914;2022-11-15T09:07:09;3.28;;;1.95;;
74215;SDS011;62577;53.378;-2.914;2022-11-15T09:09:35;2.65;;;1.73;;
74215;SDS011;62577;53.378;-2.914;2022-11-15T09:12:01;3.45;;;1.45;;
74215;SDS011;62577;53.378;-2.914;2022-11-15T09:14:27;3.05;;;1.73;;
74215;SDS011;62577;53.378;-2.914;2022-11-15T09:16:53;5.78;;;2.25;;
74215;SDS011;62577;53.378;-2.914;2022-11-15T09:19:20;4.50;;;1.70;;
74215;SDS011;62577;53.378;-2.914;2022-11-15T09:21:46;3.63;;;2.15;;
74215;SDS011;62577;53.378;-2.914;2022-11-15T09:24:15;2.45;;;1.83;;
74215;SDS011;62577;53.378;-2.914;2022-11-15T09:26:42;2.70;;;1.38;;
74215;SDS011;62577;53.378;-2.914;2022-11-15T09:29:08;4.10;;;1.92;;
74215;SDS011;62577;53.378;-2.914;2022-11-15T09:31:34;2.60;;;1.88;;
74215;SDS011;62577;53.378;-2.914;2022-11-15T09:34:00;2.90;;;1.65;;
74215;SDS011;62577;53.378;-2.914;2022-11-15T09:36:26;3.20;;;1.75;;
74215;SDS011;62577;53.378;-2.914;2022-11-15T09:38:52;3.88;;;1.80;;
74215;SDS011;62577;53.378;-2.914;2022-11-15T09:41:39;5.43;;;2.00;;
74215;SDS011;62577;53.378;-2.914;2022-11-15T09:47:07;3.40;;;1.80;;
74215;SDS011;62577;53.378;-2.914;2022-11-15T09:49:29;4.35;;;1.40;;
74215;SDS011;62577;53.378;-2.914;2022-11-15T09:51:55;2.70;;;1.20;;
74215;SDS011;62577;53.378;-2.914;2022-11-15T09:54:31;2.50;;;1.30;;
74215;SDS011;62577;53.378;-2.914;2022-11-15T09:57:20;3.60;;;1.55;;
74215;SDS011;62577;53.378;-2.914;2022-11-15T10:04:36;3.47;;;1.60;;
74215;SDS011;62577;53.378;-2.914;2022-11-15T10:07:14;2.47;;;1.02;;
74215;SDS011;62577;53.378;-2.914;2022-11-15T10:12:28;4.65;;;3.60;;
74215;SDS011;62577;53.378;-2.914;2022-11-15T10:15:02;5.70;;;3.20;;
74215;SDS011;62577;53.378;-2.914;2022-11-15T10:17:40;5.47;;;2.97;;
74215;SDS011;62577;53.378;-2.914;2022-11-15T10:20:20;4.40;;;3.20;;
74215;SDS011;62577;53.378;-2.914;2022-11-15T10:22:48;5.35;;;3.22;;
74215;SDS011;62577;53.378;-2.914;2022-11-15T10:25:17;5.03;;;2.95;;
74215;SDS011;62577;53.378;-2.914;2022-11-15T10:27:44;5.55;;;2.78;;
74215;SDS011;62577;53.378;-2.914;2022-11-15T10:30:15;4.07;;;2.50;;
74215;SDS011;62577;53.378;-2.914;2022-11-15T10:32:42;2.90;;;1.48;;
74215;SDS011;62577;53.378;-2.914;2022-11-15T10:35:19;2.60;;;1.35;;
74215;SDS011;62577;53.378;-2.914;2022-11-15T10:37:46;2.35;;;1.30;;
74215;SDS011;62577;53.378;-2.914;2022-11-15T10:40:16;2.83;;;0.93;;
74215;SDS011;62577;53.378;-2.914;2022-11-15T10:42:43;1.95;;;0.98;;
74215;SDS011;62577;53.378;-2.914;2022-11-15T10:45:31;4.07;;;2.08;;
74215;SDS011;62577;53.378;-2.914;2022-11-15T10:48:14;2.25;;;1.25;;
74215;SDS011;62577;53.378;-2.914;2022-11-15T10:50:44;3.47;;;1.23;;
74215;SDS011;62577;53.378;-2.914;2022-11-15T10:53:16;3.28;;;1.10;;
74215;SDS011;62577;53.378;-2.914;2022-11-15T10:55:46;3.67;;;0.65;;
74215;SDS011;62577;53.378;-2.914;2022-11-15T11:01:08;2.05;;;0.55;;
74215;SDS011;62577;53.378;-2.914;2022-11-15T11:03:35;2.35;;;0.88;;
74215;SDS011;62577;53.378;-2.914;2022-11-15T11:06:06;4.15;;;0.77;;
74215;SDS011;62577;53.378;-2.914;2022-11-15T11:08:32;1.90;;;0.52;;
74215;SDS011;62577;53.378;-2.914;2022-11-15T11:11:00;2.05;;;0.52;;
74215;SDS011;62577;53.378;-2.914;2022-11-15T11:13:27;3.10;;;0.80;;
74215;SDS011;62577;53.378;-2.914;2022-11-15T11:19:10;1.80;;;0.70;;
74215;SDS011;62577;53.378;-2.914;2022-11-15T11:21:20;7.13;;;1.02;;
74215;SDS011;62577;53.378;-2.914;2022-11-15T11:33:42;8.90;;;1.42;;
74215;SDS011;62577;53.378;-2.914;2022-11-15T11:36:11;4.20;;;1.15;;
74215;SDS011;62577;53.378;-2.914;2022-11-15T11:38:56;7.22;;;1.20;;
74215;SDS011;62577;53.378;-2.914;2022-11-15T11:41:34;4.00;;;1.17;;
74215;SDS011;62577;53.378;-2.914;2022-11-15T11:44:51;6.80;;;1.42;;
74215;SDS011;62577;53.378;-2.914;2022-11-15T11:47:09;6.90;;;1.02;;
74215;SDS011;62577;53.378;-2.914;2022-11-15T11:52:09;7.85;;;0.82;;
74215;SDS011;62577;53.378;-2.914;2022-11-15T11:57:20;7.30;;;0.80;;
74215;SDS011;62577;53.378;-2.914;2022-11-15T11:59:50;8.90;;;0.93;;
74215;SDS011;62577;53.378;-2.914;2022-11-15T12:02:28;9.07;;;1.45;;
74215;SDS011;62577;53.378;-2.914;2022-11-15T12:07:54;5.15;;;1.52;;
74215;SDS011;62577;53.378;-2.914;2022-11-15T12:10:23;5.95;;;2.03;;
74215;SDS011;62577;53.378;-2.914;2022-11-15T12:13:09;9.60;;;1.80;;
74215;SDS011;62577;53.378;-2.914;2022-11-15T12:15:43;5.55;;;1.30;;
74215;SDS011;62577;53.378;-2.914;2022-11-15T12:18:12;7.05;;;1.08;;
74215;SDS011;62577;53.378;-2.914;2022-11-15T12:23:06;9.98;;;1.75;;
74215;SDS011;62577;53.378;-2.914;2022-11-15T12:25:42;11.95;;;1.63;;
74215;SDS011;62577;53.378;-2.914;2022-11-15T12:28:15;6.78;;;1.70;;
74215;SDS011;62577;53.378;-2.914;2022-11-15T12:30:44;13.93;;;1.27;;
74215;SDS011;62577;53.378;-2.914;2022-11-15T12:41:24;9.02;;;1.42;;
74215;SDS011;62577;53.378;-2.914;2022-11-15T12:43:51;9.57;;;1.73;;
74215;SDS011;62577;53.378;-2.914;2022-11-15T13:02:26;14.45;;;1.83;;
74215;SDS011;62577;53.378;-2.914;2022-11-15T13:04:54;14.68;;;2.17;;
74215;SDS011;62577;53.378;-2.914;2022-11-15T13:17:42;11.88;;;1.50;;
74215;SDS011;62577;53.378;-2.914;2022-11-15T13:20:17;11.50;;;2.35;;
74215;SDS011;62577;53.378;-2.914;2022-11-15T13:23:28;13.48;;;1.88;;
74215;SDS011;62577;53.378;-2.914;2022-11-15T13:27:55;11.10;;;1.48;;
74215;SDS011;62577;53.378;-2.914;2022-11-15T13:30:26;7.38;;;1.40;;
74215;SDS011;62577;53.378;-2.914;2022-11-15T13:32:53;16.45;;;1.92;;
74215;SDS011;62577;53.378;-2.914;2022-11-15T13:35:20;10.15;;;1.90;;
74215;SDS011;62577;53.378;-2.914;2022-11-15T13:37:47;10.82;;;1.88;;
74215;SDS011;62577;53.378;-2.914;2022-11-15T13:40:19;9.60;;;1.85;;
74215;SDS011;62577;53.378;-2.914;2022-11-15T13:42:46;11.18;;;1.30;;
74215;SDS011;62577;53.378;-2.914;2022-11-15T13:45:15;9.02;;;1.45;;
74215;SDS011;62577;53.378;-2.914;2022-11-15T13:47:42;12.40;;;1.17;;
74215;SDS011;62577;53.378;-2.914;2022-11-15T13:50:12;9.02;;;1.10;;
74215;SDS011;62577;53.378;-2.914;2022-11-15T13:52:38;9.30;;;1.10;;
74215;SDS011;62577;53.378;-2.914;2022-11-15T13:55:12;17.13;;;2.13;;
74215;SDS011;62577;53.378;-2.914;2022-11-15T14:00:06;12.60;;;1.13;;
74215;SDS011;62577;53.378;-2.914;2022-11-15T14:02:49;9.35;;;1.55;;
74215;SDS011;62577;53.378;-2.914;2022-11-15T14:05:16;8.35;;;1.00;;
74215;SDS011;62577;53.378;-2.914;2022-11-15T14:10:31;8.52;;;1.20;;
74215;SDS011;62577;53.378;-2.914;2022-11-15T14:12:58;8.90;;;1.08;;
74215;SDS011;62577;53.378;-2.914;2022-11-15T14:17:50;9.68;;;1.00;;
74215;SDS011;62577;53.378;-2.914;2022-11-15T14:22:55;7.07;;;1.27;;
74215;SDS011;62577;53.378;-2.914;2022-11-15T14:25:23;14.00;;;1.42;;
74215;SDS011;62577;53.378;-2.914;2022-11-15T14:30:33;8.25;;;0.85;;
74215;SDS011;62577;53.378;-2.914;2022-11-15T14:32:59;12.25;;;1.23;;
74215;SDS011;62577;53.378;-2.914;2022-11-15T14:35:26;15.48;;;1.23;;
74215;SDS011;62577;53.378;-2.914;2022-11-15T14:37:52;10.93;;;1.10;;
74215;SDS011;62577;53.378;-2.914;2022-11-15T14:40:19;8.15;;;1.05;;
74215;SDS011;62577;53.378;-2.914;2022-11-15T14:42:45;11.35;;;1.10;;
74215;SDS011;62577;53.378;-2.914;2022-11-15T14:45:16;9.65;;;1.17;;
74215;SDS011;62577;53.378;-2.914;2022-11-15T14:47:42;7.05;;;1.08;;
74215;SDS011;62577;53.378;-2.914;2022-11-15T14:50:12;8.48;;;1.40;;
74215;SDS011;62577;53.378;-2.914;2022-11-15T14:52:39;8.18;;;1.17;;
74215;SDS011;62577;53.378;-2.914;2022-11-15T14:55:27;7.00;;;0.90;;
74215;SDS011;62577;53.378;-2.914;2022-11-15T14:57:52;7.32;;;1.42;;
74215;SDS011;62577;53.378;-2.914;2022-11-15T15:00:19;7.72;;;1.60;;
74215;SDS011;62577;53.378;-2.914;2022-11-15T15:02:46;7.00;;;1.42;;
74215;SDS011;62577;53.378;-2.914;2022-11-15T15:07:48;8.48;;;2.60;;
74215;SDS011;62577;53.378;-2.914;2022-11-15T15:10:14;4.68;;;1.83;;
74215;SDS011;62577;53.378;-2.914;2022-11-15T15:12:41;5.78;;;1.60;;
74215;SDS011;62577;53.378;-2.914;2022-11-15T15:15:25;8.90;;;1.30;;
74215;SDS011;62577;53.378;-2.914;2022-11-15T15:17:51;8.20;;;0.82;;
74215;SDS011;62577;53.378;-2.914;2022-11-15T15:20:17;11.07;;;2.22;;
74215;SDS011;62577;53.378;-2.914;2022-11-15T15:22:43;8.88;;;1.38;;
74215;SDS011;62577;53.378;-2.914;2022-11-15T15:27:45;6.53;;;1.63;;
74215;SDS011;62577;53.378;-2.914;2022-11-15T15:30:11;6.68;;;1.67;;
74215;SDS011;62577;53.378;-2.914;2022-11-15T15:32:37;10.13;;;1.10;;
74215;SDS011;62577;53.378;-2.914;2022-11-15T15:35:03;11.75;;;1.90;;
74215;SDS011;62577;53.378;-2.914;2022-11-15T15:37:29;6.47;;;1.50;;
74215;SDS011;62577;53.378;-2.914;2022-11-15T15:39:58;4.13;;;1.00;;
74215;SDS011;62577;53.378;-2.914;2022-11-15T15:42:24;9.15;;;1.45;;
74215;SDS011;62577;53.378;-2.914;2022-11-15T15:44:50;9.77;;;1.27;;
74215;SDS011;62577;53.378;-2.914;2022-11-15T15:47:20;12.32;;;1.17;;
74215;SDS011;62577;53.378;-2.914;2022-11-15T15:49:47;7.32;;;1.38;;
74215;SDS011;62577;53.378;-2.914;2022-11-15T15:52:14;6.03;;;1.00;;
74215;SDS011;62577;53.378;-2.914;2022-11-15T15:54:40;13.38;;;1.92;;
74215;SDS011;62577;53.378;-2.914;2022-11-15T15:57:06;9.32;;;1.35;;
74215;SDS011;62577;53.378;-2.914;2022-11-15T15:59:33;6.93;;;1.02;;
74215;SDS011;62577;53.378;-2.914;2022-11-15T16:01:59;8.05;;;1.10;;
74215;SDS011;62577;53.378;-2.914;2022-11-15T16:04:25;5.97;;;1.10;;
74215;SDS011;62577;53.378;-2.914;2022-11-15T16:06:51;6.10;;;1.30;;
74215;SDS011;62577;53.378;-2.914;2022-11-15T16:09:19;10.18;;;1.98;;
74215;SDS011;62577;53.378;-2.914;2022-11-15T16:12:08;8.35;;;1.33;;
74215;SDS011;62577;53.378;-2.914;2022-11-15T16:14:34;11.13;;;1.92;;
74215;SDS011;62577;53.378;-2.914;2022-11-15T16:17:01;7.35;;;1.23;;
74215;SDS011;62577;53.378;-2.914;2022-11-15T16:19:27;10.93;;;2.10;;
74215;SDS011;62577;53.378;-2.914;2022-11-15T16:21:53;17.63;;;2.75;;
74215;SDS011;62577;53.378;-2.914;2022-11-15T16:24:19;14.80;;;2.40;;
74215;SDS011;62577;53.378;-2.914;2022-11-15T16:26:46;11.68;;;1.58;;
74215;SDS011;62577;53.378;-2.914;2022-11-15T16:29:12;12.95;;;1.88;;
74215;SDS011;62577;53.378;-2.914;2022-11-15T16:31:38;11.98;;;1.88;;
74215;SDS011;62577;53.378;-2.914;2022-11-15T16:34:04;6.28;;;2.00;;
74215;SDS011;62577;53.378;-2.914;2022-11-15T16:36:32;9.73;;;1.73;;
74215;SDS011;62577;53.378;-2.914;2022-11-15T16:38:59;10.85;;;2.45;;
74215;SDS011;62577;53.378;-2.914;2022-11-15T16:41:25;18.98;;;3.67;;
74215;SDS011;62577;53.378;-2.914;2022-11-15T16:43:51;7.45;;;3.55;;
74215;SDS011;62577;53.378;-2.914;2022-11-15T16:46:24;11.50;;;2.85;;